createdAt,value
2016-04-16T00:00:16.540Z,0
2016-04-16T00:01:16.527Z,0
2016-04-16T00:02:16.530Z,0
2016-04-16T00:03:16.549Z,0
2016-04-16T00:04:16.552Z,0
2016-04-16T00:05:16.554Z,0
2016-04-16T00:06:16.541Z,0
2016-04-16T00:07:16.402Z,0
2016-04-16T00:08:16.546Z,0
2016-04-16T00:09:16.565Z,0
2016-04-16T00:10:16.535Z,0
2016-04-16T00:11:29.288Z,0
2016-04-16T00:12:22.822Z,0
2016-04-16T00:13:16.543Z,0
2016-04-16T00:14:16.578Z,0
2016-04-16T00:15:16.518Z,0
2016-04-16T00:16:16.537Z,0
2016-04-16T00:17:29.305Z,0
2016-04-16T00:18:16.542Z,0
2016-04-16T00:19:16.529Z,0
2016-04-16T00:20:16.547Z,0
2016-04-16T00:21:16.565Z,0
2016-04-16T00:22:16.553Z,0
2016-04-16T00:23:16.556Z,0
2016-04-16T00:24:16.559Z,0
2016-04-16T00:25:16.561Z,0
2016-04-16T00:26:16.548Z,0
2016-04-16T00:27:16.550Z,0
2016-04-16T00:28:16.537Z,0
2016-04-16T00:29:16.556Z,0
2016-04-16T00:30:16.558Z,0
2016-04-16T00:31:16.561Z,0
2016-04-16T00:32:16.532Z,0
2016-04-16T00:33:16.566Z,0
2016-04-16T00:34:16.538Z,0
2016-04-16T00:35:16.541Z,0
2016-04-16T00:36:16.544Z,0
2016-04-16T00:37:15.811Z,0
2016-04-16T00:38:16.596Z,0
2016-04-16T00:39:29.285Z,0
2016-04-16T00:40:16.569Z,0
2016-04-16T00:41:16.557Z,0
2016-04-16T00:42:16.559Z,0
2016-04-16T00:43:16.562Z,0
2016-04-16T00:44:16.564Z,0
2016-04-16T00:45:16.536Z,0
2016-04-16T00:46:29.273Z,0
2016-04-16T00:47:16.542Z,0
2016-04-16T00:48:16.545Z,0
2016-04-16T00:49:16.579Z,0
2016-04-16T00:50:16.596Z,0
2016-04-16T00:51:16.537Z,0
2016-04-16T00:52:16.555Z,0
2016-04-16T00:53:16.543Z,0
2016-04-16T00:54:29.295Z,0
2016-04-16T00:55:16.564Z,0
2016-04-16T00:56:16.410Z,0
2016-04-16T00:57:16.569Z,0
2016-04-16T00:58:16.540Z,0
2016-04-16T00:59:29.277Z,0
2016-04-16T01:00:16.545Z,0
2016-04-16T01:01:16.547Z,0
2016-04-16T01:02:16.566Z,0
2016-04-16T01:03:16.772Z,0
2016-04-16T01:04:16.556Z,0
2016-04-16T01:05:16.622Z,0
2016-04-16T01:06:16.530Z,0
2016-04-16T01:07:16.533Z,0
2016-04-16T01:08:16.551Z,0
2016-04-16T01:09:16.569Z,0
2016-04-16T01:10:16.557Z,0
2016-04-16T01:11:16.574Z,0
2016-04-16T01:12:16.562Z,0
2016-04-16T01:13:16.564Z,0
2016-04-16T01:14:22.833Z,0
2016-04-16T01:15:16.538Z,0
2016-04-16T01:16:16.573Z,0
2016-04-16T01:17:16.575Z,0
2016-04-16T01:18:16.546Z,0
2016-04-16T01:19:22.831Z,0
2016-04-16T01:20:16.645Z,0
2016-04-16T01:21:16.587Z,0
2016-04-16T01:22:16.557Z,0
2016-04-16T01:23:16.560Z,0
2016-04-16T01:24:16.594Z,0
2016-04-16T01:25:29.284Z,0
2016-04-16T01:26:16.786Z,0
2016-04-16T01:27:16.555Z,0
2016-04-16T01:28:16.589Z,0
2016-04-16T01:29:16.576Z,0
2016-04-16T01:30:16.563Z,0
2016-04-16T01:31:16.550Z,0
2016-04-16T01:32:16.553Z,0
2016-04-16T01:33:16.555Z,0
2016-04-16T01:34:16.558Z,0
2016-04-16T01:35:29.311Z,0
2016-04-16T01:36:16.548Z,0
2016-04-16T01:37:16.566Z,0
2016-04-16T01:38:16.538Z,0
2016-04-16T01:39:16.556Z,0
2016-04-16T01:40:16.543Z,0
2016-04-16T01:41:16.577Z,0
2016-04-16T01:42:16.564Z,0
2016-04-16T01:43:29.270Z,0
2016-04-16T01:44:16.554Z,0
2016-04-16T01:45:16.557Z,0
2016-04-16T01:46:16.560Z,0
2016-04-16T01:47:16.563Z,0
2016-04-16T01:48:16.549Z,0
2016-04-16T01:49:16.537Z,0
2016-04-16T01:50:16.742Z,0
2016-04-16T01:51:17.167Z,0
2016-04-16T01:52:16.528Z,0
2016-04-16T01:53:16.547Z,0
2016-04-16T01:54:16.550Z,0
2016-04-16T01:55:16.553Z,0
2016-04-16T01:56:16.556Z,0
2016-04-16T01:57:16.526Z,0
2016-04-16T01:58:16.561Z,0
2016-04-16T01:59:16.563Z,0
2016-04-16T02:00:16.534Z,0
2016-04-16T02:01:16.536Z,0
2016-04-16T02:02:29.274Z,0
2016-04-16T02:03:16.531Z,0
2016-04-16T02:04:16.533Z,0
2016-04-16T02:05:16.567Z,0
2016-04-16T02:06:16.586Z,0
2016-04-16T02:07:16.542Z,0
2016-04-16T02:08:16.528Z,0
2016-04-16T02:09:16.547Z,0
2016-04-16T02:10:16.550Z,0
2016-04-16T02:11:16.537Z,0
2016-04-16T02:12:16.540Z,0
2016-04-16T02:13:16.573Z,0
2016-04-16T02:14:16.545Z,0
2016-04-16T02:15:16.547Z,0
2016-04-16T02:16:16.550Z,0
2016-04-16T02:17:16.537Z,0
2016-04-16T02:18:16.555Z,0
2016-04-16T02:19:16.558Z,0
2016-04-16T02:20:29.405Z,0
2016-04-16T02:21:16.579Z,0
2016-04-16T02:22:16.553Z,0
2016-04-16T02:23:16.540Z,0
2016-04-16T02:24:16.558Z,0
2016-04-16T02:25:16.545Z,0
2016-04-16T02:26:16.548Z,0
2016-04-16T02:27:16.566Z,0
2016-04-16T02:28:16.553Z,0
2016-04-16T02:29:16.541Z,0
2016-04-16T02:30:16.528Z,0
2016-04-16T02:31:16.546Z,0
2016-04-16T02:32:16.533Z,0
2016-04-16T02:33:29.301Z,0
2016-04-16T02:34:16.553Z,0
2016-04-16T02:35:16.697Z,0
2016-04-16T02:36:16.544Z,0
2016-04-16T02:37:16.547Z,0
2016-04-16T02:38:16.565Z,0
2016-04-16T02:39:16.567Z,0
2016-04-16T02:40:16.555Z,0
2016-04-16T02:41:16.557Z,0
2016-04-16T02:42:29.263Z,0
2016-04-16T02:43:29.296Z,0
2016-04-16T02:44:16.574Z,0
2016-04-16T02:45:16.636Z,0
2016-04-16T02:46:16.681Z,0
2016-04-16T02:47:16.711Z,0
2016-04-16T02:48:16.756Z,0
2016-04-16T02:49:16.760Z,0
2016-04-16T02:50:16.809Z,0
2016-04-16T02:51:16.796Z,0
2016-04-16T02:52:29.579Z,0
2016-04-16T02:53:29.567Z,0
2016-04-16T02:54:16.825Z,0
2016-04-16T02:55:16.833Z,0
2016-04-16T02:56:16.873Z,0
2016-04-16T02:57:16.850Z,0
2016-04-16T02:58:29.577Z,0
2016-04-16T02:59:16.863Z,0
2016-04-16T03:00:16.884Z,0
2016-04-16T03:01:16.872Z,0
2016-04-16T03:02:16.862Z,0
2016-04-16T03:03:16.851Z,0
2016-04-16T03:04:29.604Z,0
2016-04-16T03:05:16.889Z,0
2016-04-16T03:06:16.892Z,0
2016-04-16T03:07:16.880Z,0
2016-04-16T03:08:16.899Z,0
2016-04-16T03:09:16.871Z,0
2016-04-16T03:10:16.874Z,0
2016-04-16T03:11:16.878Z,0
2016-04-16T03:12:16.881Z,0
2016-04-16T03:13:16.884Z,0
2016-04-16T03:14:16.886Z,0
2016-04-16T03:15:29.608Z,0
2016-04-16T03:16:16.876Z,0
2016-04-16T03:17:16.863Z,0
2016-04-16T03:18:16.866Z,0
2016-04-16T03:19:16.899Z,0
2016-04-16T03:20:16.887Z,0
2016-04-16T03:21:16.889Z,0
2016-04-16T03:22:16.892Z,0
2016-04-16T03:23:16.910Z,0
2016-04-16T03:24:16.882Z,0
2016-04-16T03:25:16.868Z,0
2016-04-16T03:26:16.855Z,0
2016-04-16T03:27:29.624Z,0
2016-04-16T03:28:16.877Z,0
2016-04-16T03:29:16.927Z,0
2016-04-16T03:30:16.851Z,0
2016-04-16T03:31:16.869Z,0
2016-04-16T03:32:16.857Z,0
2016-04-16T03:33:29.624Z,0
2016-04-16T03:34:16.862Z,0
2016-04-16T03:35:16.848Z,0
2016-04-16T03:36:16.882Z,0
2016-04-16T03:37:16.870Z,0
2016-04-16T03:38:16.888Z,0
2016-04-16T03:39:16.937Z,0
2016-04-16T03:40:16.940Z,0
2016-04-16T03:41:16.865Z,0
2016-04-16T03:42:29.633Z,0
2016-04-16T03:43:16.855Z,0
2016-04-16T03:44:16.873Z,0
2016-04-16T03:45:16.860Z,0
2016-04-16T03:46:16.847Z,0
2016-04-16T03:47:16.865Z,0
2016-04-16T03:48:16.884Z,0
2016-04-16T03:49:16.855Z,0
2016-04-16T03:50:16.858Z,0
2016-04-16T03:51:16.875Z,0
2016-04-16T03:52:16.879Z,0
2016-04-16T03:53:16.881Z,0
2016-04-16T03:54:16.884Z,0
2016-04-16T03:55:16.871Z,0
2016-04-16T03:56:16.874Z,0
2016-04-16T03:57:16.861Z,0
2016-04-16T03:58:29.613Z,0
2016-04-16T03:59:16.866Z,0
2016-04-16T04:00:16.884Z,0
2016-04-16T04:01:16.887Z,0
2016-04-16T04:02:16.890Z,0
2016-04-16T04:03:16.877Z,0
2016-04-16T04:04:16.849Z,0
2016-04-16T04:05:16.882Z,0
2016-04-16T04:06:16.870Z,0
2016-04-16T04:07:29.622Z,4
2016-04-16T04:08:16.875Z,4
2016-04-16T04:09:16.893Z,4
2016-04-16T04:10:16.865Z,0
2016-04-16T04:11:16.852Z,0
2016-04-16T04:12:16.886Z,4
2016-04-16T04:13:16.873Z,4
2016-04-16T04:14:16.875Z,4
2016-04-16T04:15:16.894Z,4
2016-04-16T04:16:16.850Z,8
2016-04-16T04:17:29.617Z,8
2016-04-16T04:18:18.277Z,8
2016-04-16T04:19:16.889Z,8
2016-04-16T04:20:16.876Z,12
2016-04-16T04:21:16.879Z,12
2016-04-16T04:22:16.866Z,16
2016-04-16T04:23:16.884Z,16
2016-04-16T04:24:16.886Z,16
2016-04-16T04:25:16.967Z,16
2016-04-16T04:26:16.969Z,20
2016-04-16T04:27:16.957Z,24
2016-04-16T04:28:16.866Z,32
2016-04-16T04:29:29.603Z,40
2016-04-16T04:30:16.888Z,44
2016-04-16T04:31:16.890Z,52
2016-04-16T04:32:16.893Z,52
2016-04-16T04:33:16.910Z,64
2016-04-16T04:34:16.883Z,72
2016-04-16T04:35:16.869Z,88
2016-04-16T04:36:16.872Z,104
2016-04-16T04:37:16.844Z,128
2016-04-16T04:38:16.877Z,140
2016-04-16T04:39:16.896Z,144
2016-04-16T04:40:16.867Z,148
2016-04-16T04:41:29.620Z,152
2016-04-16T04:42:16.856Z,156
2016-04-16T04:43:16.876Z,160
2016-04-16T04:44:16.862Z,160
2016-04-16T04:45:16.896Z,152
2016-04-16T04:46:16.853Z,156
2016-04-16T04:47:16.839Z,156
2016-04-16T04:48:16.858Z,172
2016-04-16T04:49:16.875Z,188
2016-04-16T04:50:16.863Z,216
2016-04-16T04:51:16.866Z,256
2016-04-16T04:52:16.869Z,264
2016-04-16T04:53:16.872Z,260
2016-04-16T04:54:23.108Z,216
2016-04-16T04:55:16.845Z,216
2016-04-16T04:56:16.863Z,232
2016-04-16T04:57:16.882Z,248
2016-04-16T04:58:16.852Z,260
2016-04-16T04:59:16.856Z,260
2016-04-16T05:00:29.624Z,260
2016-04-16T05:01:16.861Z,272
2016-04-16T05:02:16.864Z,304
2016-04-16T05:03:16.866Z,352
2016-04-16T05:04:16.885Z,420
2016-04-16T05:05:16.871Z,480
2016-04-16T05:06:16.843Z,532
2016-04-16T05:07:16.846Z,540
2016-04-16T05:08:16.868Z,512
2016-04-16T05:09:16.948Z,476
2016-04-16T05:10:29.591Z,432
2016-04-16T05:11:23.140Z,368
2016-04-16T05:12:16.894Z,332
2016-04-16T05:13:36.115Z,316
2016-04-16T05:14:16.852Z,312
2016-04-16T05:15:16.871Z,328
2016-04-16T05:16:16.873Z,344
2016-04-16T05:17:16.859Z,340
2016-04-16T05:18:16.862Z,372
2016-04-16T05:19:16.850Z,412
2016-04-16T05:20:16.853Z,368
2016-04-16T05:21:16.856Z,332
2016-04-16T05:22:16.843Z,328
2016-04-16T05:23:16.892Z,364
2016-04-16T05:24:16.879Z,424
2016-04-16T05:25:16.867Z,480
2016-04-16T05:26:16.884Z,556
2016-04-16T05:27:16.871Z,616
2016-04-16T05:28:16.719Z,632
2016-04-16T05:29:29.611Z,680
2016-04-16T05:30:16.880Z,688
2016-04-16T05:31:16.898Z,680
2016-04-16T05:32:16.901Z,676
2016-04-16T05:33:16.888Z,636
2016-04-16T05:34:16.859Z,600
2016-04-16T05:35:16.877Z,624
2016-04-16T05:36:16.865Z,648
2016-04-16T05:37:16.899Z,628
2016-04-16T05:38:16.823Z,632
2016-04-16T05:39:16.873Z,644
2016-04-16T05:40:16.907Z,660
2016-04-16T05:41:19.894Z,652
2016-04-16T05:42:16.865Z,588
2016-04-16T05:43:16.899Z,572
2016-04-16T05:44:16.870Z,612
2016-04-16T05:45:16.873Z,636
2016-04-16T05:46:16.892Z,660
2016-04-16T05:47:16.862Z,692
2016-04-16T05:48:16.882Z,728
2016-04-16T05:49:16.900Z,728
2016-04-16T05:50:16.887Z,712
2016-04-16T05:51:29.623Z,740
2016-04-16T05:52:23.158Z,800
2016-04-16T05:53:16.895Z,812
2016-04-16T05:54:16.897Z,812
2016-04-16T05:55:16.869Z,784
2016-04-16T05:56:16.872Z,816
2016-04-16T05:57:16.889Z,868
2016-04-16T05:58:16.924Z,884
2016-04-16T05:59:16.879Z,900
2016-04-16T06:00:16.914Z,912
2016-04-16T06:01:16.885Z,932
2016-04-16T06:02:16.903Z,944
2016-04-16T06:03:16.905Z,968
2016-04-16T06:04:16.893Z,976
2016-04-16T06:05:29.646Z,924
2016-04-16T06:06:16.898Z,876
2016-04-16T06:07:16.885Z,776
2016-04-16T06:08:16.810Z,744
2016-04-16T06:09:16.906Z,716
2016-04-16T06:10:16.893Z,700
2016-04-16T06:11:16.896Z,736
2016-04-16T06:12:16.883Z,724
2016-04-16T06:13:16.902Z,672
2016-04-16T06:14:16.920Z,636
2016-04-16T06:15:16.907Z,612
2016-04-16T06:16:16.894Z,592
2016-04-16T06:17:16.913Z,592
2016-04-16T06:18:29.649Z,596
2016-04-16T06:19:16.899Z,588
2016-04-16T06:20:16.918Z,588
2016-04-16T06:21:16.811Z,560
2016-04-16T06:22:16.923Z,548
2016-04-16T06:23:16.909Z,552
2016-04-16T06:24:16.913Z,616
2016-04-16T06:25:16.900Z,676
2016-04-16T06:26:16.918Z,704
2016-04-16T06:27:16.906Z,684
2016-04-16T06:28:16.908Z,684
2016-04-16T06:29:16.910Z,728
2016-04-16T06:30:29.650Z,800
2016-04-16T06:31:16.900Z,828
2016-04-16T06:32:16.919Z,888
2016-04-16T06:33:16.905Z,932
2016-04-16T06:34:16.908Z,984
2016-04-16T06:35:16.896Z,1004
2016-04-16T06:36:16.913Z,1040
2016-04-16T06:37:16.745Z,1100
2016-04-16T06:38:16.904Z,1200
2016-04-16T06:39:16.907Z,1268
2016-04-16T06:40:16.909Z,1264
2016-04-16T06:41:16.912Z,1240
2016-04-16T06:42:16.930Z,1248
2016-04-16T06:43:16.918Z,1296
2016-04-16T06:44:16.905Z,1400
2016-04-16T06:45:23.207Z,1452
2016-04-16T06:46:16.910Z,1416
2016-04-16T06:47:16.756Z,1352
2016-04-16T06:48:16.915Z,1308
2016-04-16T06:49:16.480Z,1332
2016-04-16T06:50:29.642Z,1424
2016-04-16T06:51:16.845Z,1520
2016-04-16T06:52:16.926Z,1628
2016-04-16T06:53:16.913Z,1700
2016-04-16T06:54:16.931Z,1788
2016-04-16T06:55:16.918Z,1916
2016-04-16T06:56:29.642Z,1960
2016-04-16T06:57:16.923Z,2036
2016-04-16T06:58:16.911Z,2140
2016-04-16T06:59:16.929Z,2216
2016-04-16T07:00:16.947Z,2352
2016-04-16T07:01:16.919Z,2496
2016-04-16T07:02:29.674Z,2700
2016-04-16T07:03:29.677Z,2684
2016-04-16T07:04:16.927Z,2616
2016-04-16T07:05:16.930Z,2568
2016-04-16T07:06:17.385Z,2672
2016-04-16T07:07:29.672Z,2732
2016-04-16T07:08:16.953Z,2804
2016-04-16T07:09:16.924Z,2888
2016-04-16T07:10:16.911Z,2904
2016-04-16T07:11:16.913Z,2920
2016-04-16T07:12:16.949Z,2936
2016-04-16T07:13:16.936Z,2972
2016-04-16T07:14:16.921Z,2832
2016-04-16T07:15:16.925Z,2584
2016-04-16T07:16:16.756Z,2656
2016-04-16T07:17:16.930Z,3116
2016-04-16T07:18:16.949Z,3456
2016-04-16T07:19:16.935Z,3504
2016-04-16T07:20:16.938Z,3356
2016-04-16T07:21:16.831Z,2984
2016-04-16T07:22:16.943Z,2688
2016-04-16T07:23:16.946Z,2664
2016-04-16T07:24:29.701Z,2576
2016-04-16T07:25:29.704Z,2544
2016-04-16T07:26:16.939Z,2616
2016-04-16T07:27:16.911Z,2340
2016-04-16T07:28:16.928Z,1848
2016-04-16T07:29:16.962Z,1792
2016-04-16T07:30:16.950Z,1960
2016-04-16T07:31:16.968Z,1980
2016-04-16T07:32:16.940Z,2012
2016-04-16T07:33:16.942Z,2120
2016-04-16T07:34:16.961Z,2536
2016-04-16T07:35:16.932Z,3048
2016-04-16T07:36:29.672Z,3404
2016-04-16T07:37:16.953Z,3780
2016-04-16T07:38:16.940Z,4064
2016-04-16T07:39:16.958Z,4340
2016-04-16T07:40:16.945Z,4600
2016-04-16T07:41:16.948Z,4468
2016-04-16T07:42:16.952Z,4060
2016-04-16T07:43:16.953Z,3832
2016-04-16T07:44:16.940Z,3780
2016-04-16T07:45:16.943Z,3780
2016-04-16T07:46:29.683Z,3700
2016-04-16T07:47:16.949Z,3840
2016-04-16T07:48:16.952Z,4168
2016-04-16T07:49:16.954Z,4396
2016-04-16T07:50:16.957Z,4716
2016-04-16T07:51:16.975Z,5684
2016-04-16T07:52:29.699Z,6896
2016-04-16T07:53:16.809Z,7144
2016-04-16T07:54:16.812Z,7372
2016-04-16T07:55:16.954Z,7636
2016-04-16T07:56:16.973Z,7496
2016-04-16T07:57:16.992Z,5792
2016-04-16T07:58:29.714Z,4908
2016-04-16T07:59:29.702Z,4864
2016-04-16T08:00:16.967Z,4648
2016-04-16T08:01:16.956Z,4476
2016-04-16T08:02:16.973Z,4264
2016-04-16T08:03:16.975Z,4248
2016-04-16T08:04:16.978Z,4860
2016-04-16T08:05:16.981Z,5124
2016-04-16T08:06:29.721Z,4848
2016-04-16T08:07:16.971Z,4552
2016-04-16T08:08:16.989Z,4328
2016-04-16T08:09:16.977Z,4212
2016-04-16T08:10:17.011Z,4164
2016-04-16T08:11:16.997Z,4000
2016-04-16T08:12:29.752Z,3912
2016-04-16T08:13:16.987Z,3620
2016-04-16T08:14:17.021Z,3976
2016-04-16T08:15:16.993Z,3760
2016-04-16T08:16:17.010Z,3708
2016-04-16T08:17:17.004Z,4152
2016-04-16T08:18:29.759Z,4084
2016-04-16T08:19:17.009Z,3844
2016-04-16T08:20:17.012Z,3332
2016-04-16T08:21:17.029Z,3200
2016-04-16T08:22:17.031Z,3188
2016-04-16T08:23:17.035Z,3232
2016-04-16T08:24:17.022Z,3212
2016-04-16T08:25:17.040Z,3184
2016-04-16T08:26:17.027Z,3072
2016-04-16T08:27:17.030Z,2988
2016-04-16T08:28:17.033Z,3044
2016-04-16T08:29:17.019Z,3068
2016-04-16T08:30:17.022Z,2936
2016-04-16T08:31:17.041Z,2848
2016-04-16T08:32:17.044Z,2708
2016-04-16T08:33:17.046Z,2484
2016-04-16T08:34:17.049Z,2348
2016-04-16T08:35:17.036Z,2256
2016-04-16T08:36:17.038Z,2292
2016-04-16T08:37:17.041Z,2648
2016-04-16T08:38:17.044Z,2600
2016-04-16T08:39:17.046Z,2616
2016-04-16T08:40:17.049Z,2724
2016-04-16T08:41:17.052Z,2576
2016-04-16T08:42:17.054Z,2840
2016-04-16T08:43:17.057Z,3196
2016-04-16T08:44:29.797Z,3976
2016-04-16T08:45:17.094Z,4004
2016-04-16T08:46:17.050Z,3676
2016-04-16T08:47:17.052Z,3196
2016-04-16T08:48:17.102Z,3468
2016-04-16T08:49:17.073Z,4248
2016-04-16T08:50:17.060Z,4628
2016-04-16T08:51:17.063Z,4584
2016-04-16T08:52:17.051Z,4304
2016-04-16T08:53:17.084Z,4484
2016-04-16T08:54:17.103Z,4184
2016-04-16T08:55:17.090Z,3696
2016-04-16T08:56:17.092Z,3340
2016-04-16T08:57:17.064Z,3184
2016-04-16T08:58:17.113Z,3416
2016-04-16T08:59:17.084Z,3528
2016-04-16T09:00:17.086Z,3680
2016-04-16T09:01:17.090Z,4220
2016-04-16T09:02:29.845Z,4320
2016-04-16T09:03:17.127Z,4664
2016-04-16T09:04:17.114Z,4016
2016-04-16T09:05:17.100Z,4560
2016-04-16T09:06:17.088Z,4636
2016-04-16T09:07:17.122Z,4256
2016-04-16T09:08:17.125Z,4748
2016-04-16T09:09:17.127Z,4968
2016-04-16T09:10:17.146Z,5676
2016-04-16T09:11:29.885Z,9280
2016-04-16T09:12:17.119Z,9984
2016-04-16T09:13:17.122Z,10396
2016-04-16T09:14:17.140Z,11176
2016-04-16T09:15:17.143Z,11124
2016-04-16T09:16:17.130Z,8752
2016-04-16T09:17:17.133Z,7980
2016-04-16T09:18:17.136Z,6108
2016-04-16T09:19:17.153Z,5344
2016-04-16T09:20:17.156Z,5000
2016-04-16T09:21:17.159Z,5340
2016-04-16T09:22:29.898Z,5344
2016-04-16T09:23:17.164Z,6180
2016-04-16T09:24:17.152Z,6220
2016-04-16T09:25:17.170Z,6716
2016-04-16T09:26:29.894Z,7268
2016-04-16T09:27:29.912Z,7372
2016-04-16T09:28:17.178Z,7576
2016-04-16T09:29:17.181Z,6920
2016-04-16T09:30:17.168Z,5612
2016-04-16T09:31:17.171Z,4800
2016-04-16T09:32:29.911Z,4312
2016-04-16T09:33:17.192Z,4252
2016-04-16T09:34:36.384Z,4336
2016-04-16T09:35:17.213Z,4364
2016-04-16T09:36:17.199Z,4184
2016-04-16T09:37:17.186Z,3708
2016-04-16T09:38:17.205Z,2964
2016-04-16T09:39:17.192Z,2328
2016-04-16T09:40:17.195Z,2260
2016-04-16T09:41:17.197Z,2460
2016-04-16T09:42:17.810Z,1748
2016-04-16T09:43:17.218Z,1416
2016-04-16T09:44:17.205Z,1356
2016-04-16T09:45:17.270Z,1456
2016-04-16T09:46:17.226Z,1672
2016-04-16T09:47:17.276Z,1736
2016-04-16T09:48:17.232Z,1880
2016-04-16T09:49:17.218Z,1868
2016-04-16T09:50:17.221Z,1652
2016-04-16T09:51:17.271Z,1560
2016-04-16T09:52:29.980Z,1536
2016-04-16T09:53:17.230Z,1508
2016-04-16T09:54:17.232Z,1608
2016-04-16T09:55:17.267Z,1928
2016-04-16T09:56:17.237Z,1960
2016-04-16T09:57:17.287Z,1736
2016-04-16T09:58:17.275Z,1836
2016-04-16T09:59:17.230Z,2024
2016-04-16T10:00:29.985Z,1792
2016-04-16T10:01:17.282Z,1860
2016-04-16T10:02:42.929Z,2416
2016-04-16T10:03:17.257Z,2436
2016-04-16T10:04:17.244Z,2096
2016-04-16T10:05:17.277Z,1704
2016-04-16T10:06:17.264Z,1412
2016-04-16T10:07:17.252Z,1524
2016-04-16T10:08:17.270Z,1564
2016-04-16T10:09:17.258Z,1620
2016-04-16T10:10:17.275Z,1872
2016-04-16T10:11:17.263Z,2432
2016-04-16T10:12:17.250Z,2680
2016-04-16T10:13:30.021Z,2100
2016-04-16T10:14:17.255Z,1924
2016-04-16T10:15:17.274Z,1784
2016-04-16T10:16:17.277Z,2104
2016-04-16T10:17:23.500Z,3140
2016-04-16T10:18:17.250Z,2904
2016-04-16T10:19:17.237Z,2524
2016-04-16T10:20:17.287Z,2608
2016-04-16T10:21:17.289Z,2764
2016-04-16T10:22:29.998Z,3020
2016-04-16T10:23:23.548Z,3092
2016-04-16T10:24:17.235Z,2988
2016-04-16T10:25:17.254Z,2536
2016-04-16T10:26:17.256Z,2776
2016-04-16T10:27:17.259Z,2984
2016-04-16T10:28:29.983Z,3228
2016-04-16T10:29:17.264Z,3104
2016-04-16T10:30:17.250Z,2972
2016-04-16T10:31:17.238Z,2684
2016-04-16T10:32:17.256Z,2204
2016-04-16T10:33:17.244Z,1892
2016-04-16T10:34:17.261Z,2388
2016-04-16T10:35:30.002Z,2984
2016-04-16T10:36:17.236Z,3244
2016-04-16T10:37:17.255Z,4096
2016-04-16T10:38:17.242Z,5120
2016-04-16T10:39:17.244Z,5824
2016-04-16T10:40:17.231Z,6144
2016-04-16T10:41:29.971Z,5404
2016-04-16T10:42:17.252Z,5272
2016-04-16T10:43:17.224Z,3896
2016-04-16T10:44:17.227Z,3052
2016-04-16T10:45:17.244Z,2996
2016-04-16T10:46:17.247Z,2412
2016-04-16T10:47:17.235Z,1832
2016-04-16T10:48:17.252Z,1876
2016-04-16T10:49:17.255Z,2196
2016-04-16T10:50:17.242Z,2716
2016-04-16T10:51:17.260Z,3200
2016-04-16T10:52:17.403Z,3864
2016-04-16T10:53:29.956Z,3296
2016-04-16T10:54:17.268Z,2484
2016-04-16T10:55:17.240Z,2076
2016-04-16T10:56:17.226Z,2080
2016-04-16T10:57:29.982Z,4008
2016-04-16T10:58:17.264Z,3960
2016-04-16T10:59:17.235Z,3524
2016-04-16T11:00:17.254Z,3316
2016-04-16T11:01:17.288Z,3396
2016-04-16T11:02:30.012Z,3200
2016-04-16T11:03:17.246Z,3332
2016-04-16T11:04:17.233Z,4808
2016-04-16T11:05:17.283Z,6452
2016-04-16T11:06:17.253Z,7936
2016-04-16T11:07:17.069Z,8700
2016-04-16T11:08:17.244Z,7896
2016-04-16T11:09:17.231Z,6956
2016-04-16T11:10:17.281Z,6908
2016-04-16T11:11:17.267Z,7560
2016-04-16T11:12:29.976Z,8176
2016-04-16T11:13:17.226Z,8648
2016-04-16T11:14:17.244Z,10068
2016-04-16T11:15:17.262Z,11036
2016-04-16T11:16:17.249Z,10456
2016-04-16T11:17:17.237Z,8940
2016-04-16T11:18:17.240Z,7556
2016-04-16T11:19:17.273Z,6856
2016-04-16T11:20:17.229Z,6376
2016-04-16T11:21:17.279Z,5628
2016-04-16T11:22:17.188Z,4016
2016-04-16T11:23:17.253Z,3208
2016-04-16T11:24:17.240Z,2844
2016-04-16T11:25:17.274Z,2868
2016-04-16T11:26:17.229Z,2236
2016-04-16T11:27:17.248Z,1888
2016-04-16T11:28:17.267Z,1740
2016-04-16T11:29:16.503Z,1768
2016-04-16T11:30:17.256Z,1872
2016-04-16T11:31:30.012Z,2640
2016-04-16T11:32:17.278Z,3232
2016-04-16T11:33:17.280Z,3836
2016-04-16T11:34:17.251Z,4000
2016-04-16T11:35:17.239Z,3508
2016-04-16T11:36:30.009Z,3032
2016-04-16T11:37:17.197Z,2964
2016-04-16T11:38:17.278Z,2744
2016-04-16T11:39:17.249Z,2640
2016-04-16T11:40:17.267Z,2844
2016-04-16T11:41:17.270Z,2764
2016-04-16T11:42:17.288Z,2572
2016-04-16T11:43:17.275Z,2556
2016-04-16T11:44:17.263Z,2740
2016-04-16T11:45:17.280Z,3164
2016-04-16T11:46:17.252Z,3676
2016-04-16T11:47:17.255Z,3600
2016-04-16T11:48:30.026Z,3484
2016-04-16T11:49:17.276Z,4244
2016-04-16T11:50:17.247Z,6456
2016-04-16T11:51:17.293Z,8928
2016-04-16T11:52:17.559Z,9428
2016-04-16T11:53:17.997Z,8640
2016-04-16T11:54:17.433Z,7940
2016-04-16T11:55:17.496Z,8108
2016-04-16T11:56:17.532Z,9120
2016-04-16T11:57:17.534Z,10032
2016-04-16T11:58:17.568Z,10476
2016-04-16T11:59:17.555Z,10592
2016-04-16T12:00:30.300Z,10540
2016-04-16T12:01:17.581Z,9980
2016-04-16T12:02:17.591Z,9252
2016-04-16T12:03:17.615Z,8592
2016-04-16T12:04:20.607Z,8212
2016-04-16T12:05:30.355Z,7988
2016-04-16T12:06:17.605Z,7704
2016-04-16T12:07:17.688Z,7692
2016-04-16T12:08:17.631Z,7904
2016-04-16T12:09:17.604Z,7768
2016-04-16T12:10:17.641Z,7672
2016-04-16T12:11:30.336Z,8132
2016-04-16T12:12:17.648Z,8940
2016-04-16T12:13:17.605Z,9680
2016-04-16T12:14:17.654Z,9544
2016-04-16T12:15:20.674Z,10412
2016-04-16T12:16:17.615Z,10784
2016-04-16T12:17:17.618Z,10488
2016-04-16T12:18:17.637Z,10652
2016-04-16T12:19:17.624Z,10516
2016-04-16T12:20:17.628Z,10484
2016-04-16T12:21:30.367Z,10320
2016-04-16T12:22:17.648Z,9960
2016-04-16T12:23:17.619Z,9136
2016-04-16T12:24:17.622Z,8440
2016-04-16T12:25:17.641Z,7884
2016-04-16T12:26:17.644Z,8176
2016-04-16T12:27:17.646Z,8120
2016-04-16T12:28:30.355Z,8160
2016-04-16T12:29:17.667Z,7904
2016-04-16T12:30:17.638Z,7872
2016-04-16T12:31:17.641Z,7992
2016-04-16T12:32:17.644Z,8032
2016-04-16T12:33:17.663Z,8156
2016-04-16T12:34:30.760Z,9536
2016-04-16T12:35:17.635Z,10564
2016-04-16T12:36:17.655Z,11980
2016-04-16T12:37:17.938Z,13448
2016-04-16T12:38:17.644Z,12468
2016-04-16T12:39:30.415Z,11852
2016-04-16T12:40:17.681Z,11076
2016-04-16T12:41:17.684Z,10712
2016-04-16T12:42:17.655Z,10524
2016-04-16T12:43:17.673Z,10396
2016-04-16T12:44:17.660Z,10472
2016-04-16T12:45:17.679Z,9580
2016-04-16T12:46:17.650Z,9032
2016-04-16T12:47:30.420Z,9736
2016-04-16T12:48:17.702Z,10940
2016-04-16T12:49:17.706Z,11628
2016-04-16T12:50:17.692Z,11300
2016-04-16T12:51:17.711Z,11224
2016-04-16T12:52:17.714Z,11340
2016-04-16T12:53:17.716Z,11208
2016-04-16T12:54:30.455Z,10776
2016-04-16T12:55:17.752Z,11244
2016-04-16T12:56:17.708Z,11424
2016-04-16T12:57:17.695Z,11216
2016-04-16T12:58:17.729Z,10728
2016-04-16T12:59:17.732Z,10144
2016-04-16T13:00:17.750Z,9148
2016-04-16T13:01:17.769Z,9260
2016-04-16T13:02:17.740Z,9492
2016-04-16T13:03:30.479Z,9604
2016-04-16T13:04:17.745Z,9928
2016-04-16T13:05:17.748Z,10008
2016-04-16T13:06:17.735Z,9876
2016-04-16T13:07:17.738Z,9700
2016-04-16T13:08:30.477Z,9680
2016-04-16T13:09:17.759Z,9656
2016-04-16T13:10:17.777Z,9720
2016-04-16T13:11:17.748Z,10080
2016-04-16T13:12:17.798Z,10108
2016-04-16T13:13:17.770Z,9628
2016-04-16T13:14:17.756Z,9244
2016-04-16T13:15:17.744Z,8908
2016-04-16T13:16:17.793Z,8676
2016-04-16T13:17:17.795Z,8716
2016-04-16T13:18:17.783Z,9196
2016-04-16T13:19:17.801Z,9688
2016-04-16T13:20:17.789Z,9528
2016-04-16T13:21:17.776Z,9336
2016-04-16T13:22:17.965Z,9656
2016-04-16T13:23:17.843Z,10272
2016-04-16T13:24:17.831Z,11424
2016-04-16T13:25:17.848Z,11572
2016-04-16T13:26:17.820Z,11144
2016-04-16T13:27:17.823Z,10788
2016-04-16T13:28:17.810Z,10344
2016-04-16T13:29:17.859Z,10384
2016-04-16T13:30:17.861Z,8592
2016-04-16T13:31:17.833Z,7564
2016-04-16T13:32:17.836Z,7540
2016-04-16T13:33:17.713Z,7400
2016-04-16T13:34:17.826Z,7284
2016-04-16T13:35:17.844Z,7500
2016-04-16T13:36:17.832Z,6968
2016-04-16T13:37:17.881Z,6936
2016-04-16T13:38:17.758Z,7732
2016-04-16T13:39:17.840Z,8548
2016-04-16T13:40:17.857Z,8908
2016-04-16T13:41:17.860Z,8392
2016-04-16T13:42:17.723Z,8080
2016-04-16T13:43:17.850Z,7536
2016-04-16T13:44:17.900Z,7240
2016-04-16T13:45:17.902Z,7328
2016-04-16T13:46:17.874Z,7544
2016-04-16T13:47:17.877Z,7924